createdAt,value
2022-12-20T00:01:49.820Z,1.85
2022-12-20T00:04:16.438Z,2.20
2022-12-20T00:06:45.336Z,2.05
2022-12-20T00:09:12.720Z,2.47
2022-12-20T00:11:42.216Z,2.03
2022-12-20T00:14:10.068Z,2.05
2022-12-20T00:16:37.436Z,1.80
2022-12-20T00:19:06.100Z,2.45
2022-12-20T00:21:34.397Z,2.50
2022-12-20T00:24:01.075Z,2.40
2022-12-20T00:26:30.041Z,2.25
2022-12-20T00:28:57.020Z,2.50
2022-12-20T00:31:25.287Z,2.40
2022-12-20T00:33:56.757Z,2.28
2022-12-20T00:36:25.044Z,2.58
2022-12-20T00:38:53.880Z,2.10
2022-12-20T00:41:23.302Z,2.00
2022-12-20T00:43:49.984Z,2.10
2022-12-20T00:46:21.015Z,2.22
2022-12-20T00:48:50.152Z,2.33
2022-12-20T00:51:22.228Z,2.20
2022-12-20T00:53:53.793Z,2.25
2022-12-20T00:56:21.066Z,2.50
2022-12-20T00:58:48.058Z,2.08
2022-12-20T01:01:19.216Z,2.00
2022-12-20T01:03:45.999Z,1.98
2022-12-20T01:06:12.987Z,1.85
2022-12-20T01:08:39.866Z,2.42
2022-12-20T01:11:13.073Z,2.10
2022-12-20T01:13:43.057Z,1.77
2022-12-20T01:16:14.112Z,2.20
2022-12-20T01:18:42.849Z,1.95
2022-12-20T01:21:12.770Z,2.38
2022-12-20T01:23:40.408Z,2.22
2022-12-20T01:26:11.603Z,2.25
2022-12-20T01:28:43.141Z,2.05
2022-12-20T01:31:13.952Z,1.95
2022-12-20T01:33:40.882Z,2.40
2022-12-20T01:36:10.796Z,1.98
2022-12-20T01:38:37.326Z,2.05
2022-12-20T01:41:04.621Z,1.83
2022-12-20T01:43:50.075Z,2.28
2022-12-20T01:46:16.956Z,2.17
2022-12-20T01:48:54.887Z,2.17
2022-12-20T01:51:24.546Z,2.15
2022-12-20T01:53:58.145Z,2.30
2022-12-20T01:56:25.096Z,2.35
2022-12-20T01:58:55.707Z,1.88
2022-12-20T02:01:24.686Z,2.47
2022-12-20T02:03:54.043Z,2.17
2022-12-20T02:06:24.303Z,2.53
2022-12-20T02:08:55.416Z,2.13
2022-12-20T02:12:01.365Z,2.13
2022-12-20T02:14:27.795Z,2.80
2022-12-20T02:17:17.015Z,2.40
2022-12-20T02:19:43.497Z,2.45
2022-12-20T02:22:09.996Z,2.45
2022-12-20T02:24:58.405Z,2.40
2022-12-20T02:27:35.857Z,2.50
2022-12-20T02:30:06.628Z,2.22
2022-12-20T02:32:45.465Z,2.45
2022-12-20T02:35:15.373Z,2.40
2022-12-20T02:37:54.335Z,2.40
2022-12-20T02:40:24.987Z,2.55
2022-12-20T02:42:57.336Z,2.70
2022-12-20T02:45:34.185Z,2.22
2022-12-20T02:48:12.976Z,3.00
2022-12-20T02:50:56.554Z,2.42
2022-12-20T02:53:29.651Z,2.55
2022-12-20T02:56:05.788Z,2.28
2022-12-20T02:58:38.299Z,2.28
2022-12-20T03:01:11.845Z,2.42
2022-12-20T03:03:39.933Z,2.25
2022-12-20T03:06:12.580Z,2.03
2022-12-20T03:08:39.151Z,2.55
2022-12-20T03:11:08.304Z,2.30
2022-12-20T03:13:37.349Z,2.10
2022-12-20T03:16:06.898Z,2.17
2022-12-20T03:18:35.710Z,2.22
2022-12-20T03:21:04.812Z,1.95
2022-12-20T03:23:31.729Z,2.17
2022-12-20T03:25:58.388Z,1.73
2022-12-20T03:28:27.357Z,1.88
2022-12-20T03:30:56.541Z,1.90
2022-12-20T03:33:23.221Z,2.15
2022-12-20T03:35:52.322Z,1.80
2022-12-20T03:38:19.100Z,1.85
2022-12-20T03:40:45.668Z,2.13
2022-12-20T03:43:12.317Z,2.17
2022-12-20T03:45:41.279Z,1.98
2022-12-20T03:48:07.818Z,2.40
2022-12-20T03:50:37.289Z,2.40
2022-12-20T03:53:05.961Z,1.70
2022-12-20T03:55:32.513Z,1.70
2022-12-20T03:57:59.079Z,1.88
2022-12-20T04:00:26.224Z,2.00
2022-12-20T04:02:53.014Z,2.10
2022-12-20T04:05:19.951Z,1.95
2022-12-20T04:07:46.556Z,2.00
2022-12-20T04:10:13.563Z,2.20
2022-12-20T04:12:40.204Z,1.70
2022-12-20T04:15:08.159Z,1.73
2022-12-20T04:17:34.771Z,1.90
2022-12-20T04:20:18.984Z,1.80
2022-12-20T04:22:52.828Z,2.30
2022-12-20T04:25:23.764Z,1.95
2022-12-20T04:27:50.407Z,1.75
2022-12-20T04:30:17.090Z,1.58
2022-12-20T04:32:46.830Z,2.05
2022-12-20T04:35:13.395Z,2.33
2022-12-20T04:37:40.133Z,1.83
2022-12-20T04:40:07.462Z,1.88
2022-12-20T04:42:36.363Z,1.73
2022-12-20T04:45:04.404Z,2.00
2022-12-20T04:47:33.593Z,1.67
2022-12-20T04:50:00.215Z,2.03
2022-12-20T04:52:47.930Z,1.90
2022-12-20T04:55:18.444Z,1.90
2022-12-20T04:57:47.459Z,1.80
2022-12-20T05:00:15.477Z,2.00
2022-12-20T05:02:42.325Z,2.03
2022-12-20T05:05:09.348Z,2.85
2022-12-20T05:07:35.975Z,2.00
2022-12-20T05:10:05.019Z,1.70
2022-12-20T05:12:31.675Z,1.70
2022-12-20T05:15:00.796Z,1.90
2022-12-20T05:17:29.583Z,2.17
2022-12-20T05:19:58.652Z,1.98
2022-12-20T05:23:03.683Z,1.88
2022-12-20T05:25:48.572Z,1.80
2022-12-20T05:28:15.099Z,1.67
2022-12-20T05:30:41.731Z,2.03
2022-12-20T05:33:08.317Z,1.77
2022-12-20T05:35:35.223Z,1.50
2022-12-20T05:38:02.838Z,2.00
2022-12-20T05:40:29.410Z,1.70
2022-12-20T05:42:56.050Z,1.70
2022-12-20T05:45:22.911Z,1.60
2022-12-20T05:47:51.888Z,1.65
2022-12-20T05:50:21.310Z,1.70
2022-12-20T05:52:48.021Z,1.83
2022-12-20T05:55:14.612Z,2.10
2022-12-20T05:57:43.560Z,2.00
2022-12-20T06:00:11.436Z,1.80
2022-12-20T06:02:38.420Z,1.73
2022-12-20T06:05:07.912Z,1.83
2022-12-20T06:07:36.858Z,1.45
2022-12-20T06:10:03.819Z,1.60
2022-12-20T06:12:32.650Z,1.50
2022-12-20T06:14:59.250Z,1.60
2022-12-20T06:17:26.134Z,1.90
2022-12-20T06:19:52.815Z,1.52
2022-12-20T06:22:19.339Z,1.38
2022-12-20T06:24:48.652Z,1.70
2022-12-20T06:27:15.582Z,1.50
2022-12-20T06:29:42.739Z,1.73
2022-12-20T06:32:12.300Z,1.30
2022-12-20T06:34:39.689Z,1.60
2022-12-20T06:37:06.241Z,1.30
2022-12-20T06:39:35.564Z,1.60
2022-12-20T06:42:04.647Z,1.88
2022-12-20T06:44:31.376Z,1.40
2022-12-20T06:46:58.062Z,1.60
2022-12-20T06:49:24.597Z,1.40
2022-12-20T06:51:51.351Z,1.58
2022-12-20T06:54:20.246Z,1.60
2022-12-20T06:56:46.825Z,1.60
2022-12-20T06:59:13.641Z,1.40
2022-12-20T07:01:42.601Z,1.63
2022-12-20T07:04:09.290Z,1.23
2022-12-20T07:06:35.935Z,1.55
2022-12-20T07:09:07.309Z,1.35
2022-12-20T07:11:33.841Z,1.30
2022-12-20T07:14:00.467Z,1.70
2022-12-20T07:16:27.087Z,1.48
2022-12-20T07:18:54.391Z,1.33
2022-12-20T07:21:22.047Z,1.20
2022-12-20T07:23:48.640Z,1.38
2022-12-20T07:26:15.519Z,1.27
2022-12-20T07:28:44.956Z,1.20
2022-12-20T07:31:11.581Z,1.40
2022-12-20T07:33:40.703Z,1.30
2022-12-20T07:36:10.731Z,1.50
2022-12-20T07:38:37.663Z,1.30
2022-12-20T07:41:18.083Z,1.50
2022-12-20T07:43:47.209Z,1.30
2022-12-20T07:46:16.138Z,1.45
2022-12-20T07:48:43.189Z,1.50
2022-12-20T07:51:18.127Z,1.40
2022-12-20T07:54:06.490Z,1.58
2022-12-20T07:56:41.562Z,1.50
2022-12-20T07:59:11.694Z,1.20
2022-12-20T08:01:39.677Z,1.30
2022-12-20T08:04:12.989Z,1.27
2022-12-20T08:06:42.105Z,1.13
2022-12-20T08:09:12.652Z,1.50
2022-12-20T08:11:43.487Z,1.40
2022-12-20T08:14:11.176Z,1.27
2022-12-20T08:16:41.736Z,1.45
2022-12-20T08:19:08.367Z,1.55
2022-12-20T08:21:37.100Z,1.27
2022-12-20T08:24:06.377Z,1.60
2022-12-20T08:26:38.377Z,1.45
2022-12-20T08:29:08.001Z,2.00
2022-12-20T08:31:49.462Z,1.83
2022-12-20T08:34:19.257Z,3.35
2022-12-20T08:36:45.797Z,3.00
2022-12-20T08:39:12.377Z,2.83
2022-12-20T08:41:39.260Z,1.50
2022-12-20T08:44:06.785Z,2.05
2022-12-20T08:46:33.978Z,1.25
2022-12-20T08:49:04.680Z,1.90
2022-12-20T08:51:31.609Z,1.42
2022-12-20T08:54:00.744Z,1.70
2022-12-20T08:56:27.308Z,1.63
2022-12-20T08:58:54.050Z,1.55
2022-12-20T09:01:27.003Z,1.33
2022-12-20T09:03:53.794Z,1.73
2022-12-20T09:06:21.941Z,1.83
2022-12-20T09:08:49.576Z,1.50
2022-12-20T09:11:24.830Z,1.55
2022-12-20T09:13:53.808Z,1.67
2022-12-20T09:16:23.094Z,1.55
2022-12-20T09:18:51.739Z,1.27
2022-12-20T09:21:22.839Z,1.65
2022-12-20T09:23:54.562Z,1.60
2022-12-20T09:26:24.827Z,1.50
2022-12-20T09:28:51.735Z,1.40
2022-12-20T09:31:22.051Z,1.58
2022-12-20T09:33:54.691Z,1.60
2022-12-20T09:36:22.986Z,1.30
2022-12-20T09:38:49.964Z,1.40
2022-12-20T09:41:27.701Z,1.48
2022-12-20T09:43:58.652Z,1.60
2022-12-20T09:46:27.301Z,1.90
2022-12-20T09:48:54.272Z,1.55
2022-12-20T09:52:08.222Z,1.50
2022-12-20T09:54:37.130Z,1.30
2022-12-20T09:57:23.075Z,1.73
2022-12-20T09:59:52.394Z,1.80
2022-12-20T10:02:56.600Z,1.77
2022-12-20T10:05:18.029Z,1.73
2022-12-20T10:07:55.855Z,1.60
2022-12-20T10:10:39.831Z,1.65
2022-12-20T10:13:46.591Z,1.65
2022-12-20T10:16:42.517Z,1.77
2022-12-20T10:19:43.595Z,2.10
2022-12-20T10:22:34.145Z,1.60
2022-12-20T10:25:24.982Z,1.92
2022-12-20T10:27:55.398Z,1.98
2022-12-20T10:30:24.383Z,2.10
2022-12-20T10:32:55.966Z,1.70
2022-12-20T10:35:45.577Z,2.10
2022-12-20T10:38:17.772Z,1.75
2022-12-20T10:43:51.045Z,14.20
2022-12-20T10:46:20.162Z,3.22
2022-12-20T10:48:48.806Z,2.92
2022-12-20T10:51:18.027Z,3.22
2022-12-20T10:54:02.194Z,2.35
2022-12-20T10:56:29.873Z,2.08
2022-12-20T10:59:18.234Z,2.10
2022-12-20T11:01:49.130Z,1.85
2022-12-20T11:04:28.044Z,2.00
2022-12-20T11:06:56.632Z,1.83
2022-12-20T11:09:24.921Z,2.10
2022-12-20T11:12:18.499Z,2.10
2022-12-20T11:14:46.771Z,1.90
2022-12-20T11:17:32.632Z,2.20
2022-12-20T11:20:15.198Z,2.28
2022-12-20T11:22:47.876Z,2.05
2022-12-20T11:25:38.161Z,1.98
2022-12-20T11:28:33.994Z,2.03
2022-12-20T11:31:22.131Z,2.33
2022-12-20T11:34:39.743Z,2.13
2022-12-20T11:37:27.909Z,2.30
2022-12-20T11:40:17.670Z,2.30
2022-12-20T11:43:28.198Z,2.13
2022-12-20T11:46:28.266Z,5.68
2022-12-20T11:49:13.733Z,4.47
2022-12-20T11:51:47.386Z,2.40
2022-12-20T11:54:35.039Z,2.88
2022-12-20T11:57:15.371Z,2.53
2022-12-20T11:59:57.664Z,2.00
2022-12-20T12:02:58.045Z,1.85
2022-12-20T12:05:45.898Z,2.00
2022-12-20T12:08:25.331Z,2.15
2022-12-20T12:11:25.496Z,2.55
2022-12-20T12:13:57.645Z,2.30
2022-12-20T12:16:42.274Z,2.30
2022-12-20T12:19:11.758Z,1.95
2022-12-20T12:21:50.536Z,2.15
2022-12-20T12:24:34.953Z,10.75
2022-12-20T12:27:02.639Z,3.50
2022-12-20T12:29:30.928Z,3.33
2022-12-20T12:32:06.185Z,2.35
2022-12-20T12:35:04.827Z,2.88
2022-12-20T12:37:50.013Z,3.00
2022-12-20T12:40:47.426Z,2.47
2022-12-20T12:43:17.093Z,2.40
2022-12-20T12:45:49.962Z,2.45
2022-12-20T12:48:49.945Z,2.40
2022-12-20T12:51:24.815Z,2.60
2022-12-20T12:53:54.039Z,2.45
2022-12-20T12:56:43.322Z,2.22
2022-12-20T12:59:24.958Z,2.53
2022-12-20T13:02:04.220Z,2.60
2022-12-20T13:04:58.785Z,2.42
2022-12-20T13:07:35.266Z,2.95
2022-12-20T13:10:24.934Z,3.13
2022-12-20T13:12:52.614Z,2.53
2022-12-20T13:15:22.180Z,2.25
2022-12-20T13:17:57.056Z,2.65
2022-12-20T13:20:32.557Z,3.55
2022-12-20T13:23:08.488Z,2.40
2022-12-20T13:25:39.772Z,2.40
2022-12-20T13:28:24.782Z,2.65
2022-12-20T13:31:04.921Z,2.53
2022-12-20T13:33:42.249Z,2.22
2022-12-20T13:36:11.790Z,2.53
2022-12-20T13:38:53.844Z,2.78
2022-12-20T13:41:45.281Z,2.35
2022-12-20T13:44:14.565Z,2.63
2022-12-20T13:46:49.836Z,2.75
2022-12-20T13:49:40.133Z,3.10
2022-12-20T13:52:23.024Z,2.60
2022-12-20T13:54:54.465Z,2.42
2022-12-20T13:57:29.746Z,3.13
2022-12-20T14:00:05.671Z,4.78
2022-12-20T14:02:42.162Z,9.05
2022-12-20T14:05:19.774Z,4.93
2022-12-20T14:08:14.714Z,5.47
2022-12-20T14:10:46.577Z,3.72
2022-12-20T14:13:25.969Z,3.15
2022-12-20T14:15:53.716Z,2.88
2022-12-20T14:18:26.963Z,3.20
2022-12-20T14:21:01.355Z,2.75
2022-12-20T14:23:48.591Z,2.70
2022-12-20T14:26:40.994Z,2.40
2022-12-20T14:29:19.461Z,2.65
2022-12-20T14:31:50.104Z,2.63
2022-12-20T14:34:41.766Z,2.85
2022-12-20T14:37:41.680Z,2.58
2022-12-20T14:40:11.183Z,2.70
2022-12-20T14:42:39.964Z,2.92
2022-12-20T14:45:09.593Z,2.90
2022-12-20T14:47:37.535Z,2.92
2022-12-20T14:50:21.032Z,2.78
2022-12-20T14:52:47.880Z,2.50
2022-12-20T14:55:27.471Z,3.30
2022-12-20T14:57:58.333Z,2.83
2022-12-20T15:00:32.902Z,3.50
2022-12-20T15:03:23.001Z,4.43
2022-12-20T15:05:59.618Z,3.10
2022-12-20T15:08:33.000Z,3.30
2022-12-20T15:11:08.740Z,2.90
2022-12-20T15:13:43.060Z,2.42
2022-12-20T15:16:21.559Z,2.53
2022-12-20T15:18:49.771Z,2.67
2022-12-20T15:21:19.705Z,2.88
2022-12-20T15:23:49.573Z,2.92
2022-12-20T15:26:20.069Z,3.05
2022-12-20T15:28:46.905Z,2.63
2022-12-20T15:31:16.525Z,3.38
2022-12-20T15:33:44.433Z,3.20
2022-12-20T15:36:29.846Z,3.10
2022-12-20T15:39:14.157Z,4.70
2022-12-20T15:41:50.930Z,4.35
2022-12-20T15:44:20.742Z,3.00
2022-12-20T15:46:50.492Z,3.75
2022-12-20T15:49:20.306Z,3.28
2022-12-20T15:51:48.862Z,3.28
2022-12-20T15:54:19.580Z,3.25
2022-12-20T15:56:46.146Z,3.40
2022-12-20T15:59:57.039Z,2.97
2022-12-20T16:01:59.625Z,3.40
2022-12-20T16:04:28.964Z,3.25
2022-12-20T16:06:55.839Z,3.80
2022-12-20T16:09:25.569Z,4.28
2022-12-20T16:11:52.574Z,3.90
2022-12-20T16:14:21.284Z,3.78
2022-12-20T16:16:50.174Z,3.67
2022-12-20T16:19:20.118Z,6.35
2022-12-20T16:21:51.548Z,4.10
2022-12-20T16:24:22.369Z,3.67
2022-12-20T16:26:49.472Z,4.13
2022-12-20T16:29:16.211Z,4.07
2022-12-20T16:31:42.944Z,4.05
2022-12-20T16:34:17.818Z,4.93
2022-12-20T16:36:44.747Z,4.15
2022-12-20T16:39:11.695Z,4.55
2022-12-20T16:41:41.147Z,4.93
2022-12-20T16:44:16.711Z,5.00
2022-12-20T16:46:43.863Z,5.47
2022-12-20T16:49:19.982Z,4.97
2022-12-20T16:51:48.984Z,5.05
2022-12-20T16:54:20.611Z,4.80
2022-12-20T16:56:55.325Z,4.65
2022-12-20T16:59:23.401Z,7.13
2022-12-20T17:01:53.387Z,5.80
2022-12-20T17:04:21.413Z,5.30
2022-12-20T17:06:50.510Z,5.20
2022-12-20T17:12:16.242Z,5.03
2022-12-20T17:14:46.404Z,5.07
2022-12-20T17:17:16.031Z,5.40
2022-12-20T17:19:42.627Z,5.40
2022-12-20T17:25:03.078Z,5.32
2022-12-20T17:27:29.691Z,5.60
2022-12-20T17:29:56.318Z,6.22
2022-12-20T17:32:25.573Z,10.88
2022-12-20T17:34:52.851Z,7.95
2022-12-20T17:37:21.172Z,7.45
2022-12-20T17:39:48.131Z,7.22
2022-12-20T17:42:15.353Z,7.18
2022-12-20T17:44:42.301Z,6.30
2022-12-20T17:47:09.062Z,6.35
2022-12-20T17:49:35.622Z,6.78
2022-12-20T17:52:02.259Z,6.53
2022-12-20T17:54:34.849Z,6.30
2022-12-20T17:57:03.635Z,6.20
2022-12-20T17:59:31.469Z,6.40
2022-12-20T18:01:58.456Z,6.25
2022-12-20T18:04:28.021Z,6.13
2022-12-20T18:06:54.739Z,6.82
2022-12-20T18:09:21.860Z,6.60
2022-12-20T18:11:48.914Z,6.63
2022-12-20T18:14:16.026Z,6.75
2022-12-20T18:16:43.307Z,10.13
2022-12-20T18:19:19.301Z,8.73
2022-12-20T18:21:45.884Z,7.28
2022-12-20T18:24:14.692Z,7.40
2022-12-20T18:26:42.009Z,7.28
2022-12-20T18:29:10.789Z,7.07
2022-12-20T18:31:37.896Z,7.07
2022-12-20T18:34:05.242Z,9.53
2022-12-20T18:36:38.607Z,7.97
2022-12-20T18:39:07.165Z,7.13
2022-12-20T18:41:35.318Z,7.72
2022-12-20T18:44:04.995Z,7.88
2022-12-20T18:46:32.427Z,8.07
2022-12-20T18:49:01.279Z,9.05
2022-12-20T18:51:36.552Z,18.83
2022-12-20T18:54:08.544Z,20.27
2022-12-20T18:56:37.503Z,32.42
2022-12-20T18:59:11.357Z,14.93
2022-12-20T19:01:39.464Z,12.02
2022-12-20T19:04:08.177Z,11.57
2022-12-20T19:06:35.871Z,10.63
2022-12-20T19:09:04.554Z,8.52
2022-12-20T19:11:31.508Z,8.85
2022-12-20T19:13:58.247Z,9.57
2022-12-20T19:16:31.941Z,9.73
2022-12-20T19:18:59.789Z,11.77
2022-12-20T19:21:31.485Z,10.00
2022-12-20T19:24:00.556Z,9.80
2022-12-20T19:26:30.567Z,9.25
2022-12-20T19:28:57.942Z,9.38
2022-12-20T19:31:30.613Z,9.38
2022-12-20T19:34:05.597Z,8.93
2022-12-20T19:36:41.338Z,9.13
2022-12-20T19:39:22.566Z,9.27
2022-12-20T19:44:36.465Z,8.38
2022-12-20T19:47:06.048Z,8.77
2022-12-20T19:49:33.308Z,8.65
2022-12-20T19:52:00.256Z,9.18
2022-12-20T19:54:26.941Z,9.50
2022-12-20T19:56:53.465Z,9.60
2022-12-20T19:59:22.393Z,8.40
2022-12-20T20:01:53.904Z,8.65
2022-12-20T20:04:20.578Z,9.07
2022-12-20T20:06:47.207Z,8.95
2022-12-20T20:09:14.010Z,9.10
2022-12-20T20:11:40.572Z,9.43
2022-12-20T20:14:09.487Z,12.65
2022-12-20T20:16:39.418Z,12.18
2022-12-20T20:19:08.294Z,10.77
2022-12-20T20:21:36.714Z,12.85
2022-12-20T20:24:03.989Z,10.60
2022-12-20T20:26:32.950Z,10.93
2022-12-20T20:29:01.573Z,11.32
2022-12-20T20:31:28.631Z,10.70
2022-12-20T20:33:59.660Z,10.60
2022-12-20T20:36:26.500Z,10.25
2022-12-20T20:38:55.356Z,9.70
2022-12-20T20:41:22.871Z,9.80
2022-12-20T20:43:50.005Z,9.82
2022-12-20T20:46:17.467Z,10.82
2022-12-20T20:48:45.779Z,10.38
2022-12-20T20:51:13.148Z,9.93
2022-12-20T20:53:42.108Z,10.70
2022-12-20T20:56:09.803Z,10.45
2022-12-20T20:58:36.995Z,11.70
2022-12-20T21:01:06.465Z,11.32
2022-12-20T21:03:35.505Z,10.95
2022-12-20T21:08:48.800Z,10.93
2022-12-20T21:11:15.545Z,11.75
2022-12-20T21:13:42.173Z,12.75
2022-12-20T21:16:20.567Z,12.27
2022-12-20T21:18:52.095Z,12.85
2022-12-20T21:21:20.347Z,12.48
2022-12-20T21:23:48.053Z,13.95
2022-12-20T21:26:16.296Z,13.95
2022-12-20T21:28:44.103Z,13.82
2022-12-20T21:31:13.528Z,13.18
2022-12-20T21:33:42.927Z,11.70
2022-12-20T21:36:15.493Z,11.68
2022-12-20T21:38:42.580Z,12.25
2022-12-20T21:41:12.482Z,11.00
2022-12-20T21:43:41.627Z,11.98
2022-12-20T21:46:11.707Z,12.38
2022-12-20T21:48:43.698Z,11.63
2022-12-20T21:51:13.511Z,11.25
2022-12-20T21:53:45.545Z,10.85
2022-12-20T21:56:13.073Z,10.13
2022-12-20T21:58:39.645Z,10.50
2022-12-20T22:01:08.130Z,10.60
2022-12-20T22:03:38.192Z,10.32
2022-12-20T22:06:05.925Z,9.88
2022-12-20T22:08:32.990Z,10.25
2022-12-20T22:11:00.332Z,9.73
2022-12-20T22:13:28.416Z,8.93
2022-12-20T22:15:55.391Z,9.40
2022-12-20T22:18:23.088Z,9.23
2022-12-20T22:20:51.740Z,10.07
2022-12-20T22:23:18.751Z,11.65
2022-12-20T22:25:47.606Z,10.70
2022-12-20T22:28:16.564Z,10.98
2022-12-20T22:30:43.167Z,10.50
2022-12-20T22:33:09.871Z,10.45
2022-12-20T22:35:36.523Z,10.63
2022-12-20T22:38:04.403Z,11.13
2022-12-20T22:40:31.902Z,10.55
2022-12-20T22:43:00.753Z,10.88
2022-12-20T22:45:27.316Z,11.55
2022-12-20T22:47:53.962Z,11.30
2022-12-20T22:50:20.581Z,11.77
2022-12-20T22:52:49.349Z,12.23
2022-12-20T22:55:16.099Z,12.80
2022-12-20T22:57:45.165Z,13.60
2022-12-20T23:00:13.244Z,13.88
2022-12-20T23:02:43.097Z,13.75
2022-12-20T23:05:09.803Z,13.63
2022-12-20T23:07:41.131Z,14.38
2022-12-20T23:10:28.120Z,14.82
2022-12-20T23:13:13.262Z,15.55
2022-12-20T23:15:42.713Z,14.70
2022-12-20T23:18:09.355Z,15.00
2022-12-20T23:20:57.185Z,16.00
2022-12-20T23:23:25.895Z,16.40
2022-12-20T23:25:54.879Z,14.95
2022-12-20T23:28:26.285Z,15.50
2022-12-20T23:30:52.847Z,16.52
2022-12-20T23:33:19.411Z,16.23
2022-12-20T23:35:45.986Z,17.13
2022-12-20T23:38:12.512Z,17.05
2022-12-20T23:40:42.915Z,17.00
2022-12-20T23:43:09.476Z,17.00
2022-12-20T23:45:38.355Z,17.42
2022-12-20T23:48:07.497Z,17.95
2022-12-20T23:50:34.119Z,18.20
2022-12-20T23:53:00.861Z,17.48
2022-12-20T23:55:28.376Z,18.42
2022-12-20T23:57:54.929Z,18.20
